Time;durP1;ratioP1;P1;durP2;ratioP2;P2;SDS_P1;SDS_P2;PMS_P1;PMS_P2;Temp;Humidity;BMP_temperature;BMP_pressure;BME280_temperature;BME280_humidity;BME280_pressure;Samples;Min_cycle;Max_cycle;Signal;HPM_P1;HPM_P2
2021/04/30 00:03:43;;;;;;;20.63;15.10;;;7.10;99.90;;;;;;12251969;28;20450;-78
2021/04/30 00:09:44;;;;;;;19.67;14.55;;;7.10;99.90;;;;;;12250027;28;20489;-78
2021/04/30 00:15:46;;;;;;;20.25;15.43;;;7.20;99.90;;;;;;12245631;28;20126;-78
2021/04/30 00:21:47;;;;;;;17.45;14.40;;;7.30;99.90;;;;;;12244654;28;20143;-78
2021/04/30 00:27:49;;;;;;;17.40;14.55;;;7.30;99.90;;;;;;12245657;28;20108;-77
2021/04/30 00:33:50;;;;;;;18.25;14.23;;;7.40;99.90;;;;;;12248761;28;20539;-78
2021/04/30 00:39:51;;;;;;;17.80;14.50;;;7.40;99.90;;;;;;12254781;28;20419;-78
2021/04/30 00:45:53;;;;;;;18.00;14.55;;;7.40;99.90;;;;;;12251500;28;20180;-78
2021/04/30 00:51:54;;;;;;;17.67;14.07;;;7.30;99.90;;;;;;12256099;28;20089;-78
2021/04/30 00:57:58;;;;;;;17.58;14.40;;;7.40;99.90;;;;;;12257325;28;20177;-78
2021/04/30 01:04:00;;;;;;;17.70;15.03;;;7.50;99.90;;;;;;12251365;28;20049;-78
2021/04/30 01:10:02;;;;;;;19.98;15.52;;;7.50;99.90;;;;;;12245654;28;20051;-79
2021/04/30 01:16:04;;;;;;;21.60;15.95;;;7.40;99.90;;;;;;12252693;28;20043;-78
2021/04/30 01:22:05;;;;;;;21.45;16.67;;;7.50;99.90;;;;;;12259379;28;20051;-78
2021/04/30 01:28:09;;;;;;;19.88;16.33;;;7.40;99.90;;;;;;12290092;28;20050;-78
2021/04/30 01:34:10;;;;;;;24.48;17.50;;;7.50;99.90;;;;;;12259596;28;20043;-78
2021/04/30 01:40:14;;;;;;;20.23;16.85;;;7.60;99.90;;;;;;12255312;28;20143;-78
2021/04/30 01:46:16;;;;;;;22.25;17.45;;;7.50;99.90;;;;;;12253183;28;20044;-78
2021/04/30 01:52:17;;;;;;;25.10;18.63;;;7.60;99.90;;;;;;12258876;28;20104;-78
2021/04/30 01:58:20;;;;;;;23.90;18.45;;;7.70;99.90;;;;;;12263149;28;20143;-78
2021/04/30 02:04:21;;;;;;;25.55;19.27;;;7.60;99.90;;;;;;12242441;28;20105;-79
2021/04/30 02:10:23;;;;;;;24.38;19.17;;;7.70;99.90;;;;;;12239862;28;20138;-78
2021/04/30 02:16:25;;;;;;;28.85;22.02;;;7.60;99.90;;;;;;12259923;28;20051;-78
2021/04/30 02:22:27;;;;;;;27.80;21.58;;;7.40;99.90;;;;;;12260067;28;20051;-78
2021/04/30 02:28:28;;;;;;;28.50;22.13;;;7.40;99.90;;;;;;12258537;28;20119;-78
2021/04/30 02:34:29;;;;;;;30.58;23.20;;;7.50;99.90;;;;;;12261145;28;20256;-78
2021/04/30 02:40:32;;;;;;;28.73;22.92;;;7.60;99.90;;;;;;12258621;28;20051;-78
2021/04/30 02:46:33;;;;;;;30.33;23.20;;;7.70;99.90;;;;;;12260396;28;20082;-79
2021/04/30 02:52:35;;;;;;;31.60;24.13;;;7.70;99.90;;;;;;12257424;28;20062;-78
2021/04/30 02:58:36;;;;;;;28.35;23.23;;;7.70;99.90;;;;;;12257664;28;20090;-78
2021/04/30 03:04:37;;;;;;;31.13;23.83;;;7.80;99.90;;;;;;12259829;28;20508;-78
2021/04/30 03:10:39;;;;;;;30.40;24.45;;;7.70;99.90;;;;;;12259349;28;20137;-78
2021/04/30 03:16:40;;;;;;;30.65;25.50;;;7.60;99.90;;;;;;12265857;28;20453;-78
2021/04/30 03:22:43;;;;;;;31.95;25.67;;;7.50;99.90;;;;;;12266091;28;20197;-78
2021/04/30 03:28:44;;;;;;;32.92;25.17;;;7.50;99.90;;;;;;12255376;28;21167;-78
2021/04/30 03:34:46;;;;;;;32.38;25.35;;;7.50;99.90;;;;;;12270106;28;20685;-78
2021/04/30 03:40:47;;;;;;;35.65;26.73;;;7.40;99.90;;;;;;12251738;28;20055;-78
2021/04/30 03:46:48;;;;;;;35.60;27.23;;;7.50;99.90;;;;;;12253683;28;20453;-78
2021/04/30 03:52:50;;;;;;;39.10;27.58;;;7.50;99.90;;;;;;12246257;28;20125;-78
2021/04/30 03:58:52;;;;;;;34.63;27.15;;;7.20;99.90;;;;;;12261131;28;20050;-78
2021/04/30 04:04:53;;;;;;;35.83;27.52;;;7.30;99.90;;;;;;12254955;28;20451;-78
2021/04/30 04:10:55;;;;;;;34.78;26.50;;;7.30;99.90;;;;;;12265913;28;20048;-78
2021/04/30 04:16:56;;;;;;;41.83;28.58;;;7.20;99.90;;;;;;12262873;28;20594;-78
2021/04/30 04:22:57;;;;;;;36.70;28.73;;;7.30;99.90;;;;;;12253020;28;20059;-78
2021/04/30 04:28:59;;;;;;;36.65;28.50;;;7.40;99.90;;;;;;12250145;28;20085;-78
2021/04/30 04:35:00;;;;;;;43.20;29.70;;;7.30;99.90;;;;;;12241853;28;20079;-78
2021/04/30 04:41:02;;;;;;;38.15;29.67;;;7.20;99.90;;;;;;12252638;28;20059;-78
2021/04/30 04:47:03;;;;;;;39.95;30.25;;;7.20;99.90;;;;;;12256739;28;20052;-78
2021/04/30 04:53:05;;;;;;;45.22;31.23;;;7.20;99.90;;;;;;12253432;28;20054;-79
2021/04/30 04:59:06;;;;;;;39.08;29.95;;;7.20;99.90;;;;;;12267924;28;20205;-78
2021/04/30 05:05:08;;;;;;;40.70;29.80;;;7.40;99.90;;;;;;12270508;28;20148;-78
2021/04/30 05:11:10;;;;;;;39.63;30.17;;;7.40;99.90;;;;;;12267312;28;20059;-78
2021/04/30 05:17:12;;;;;;;39.60;29.27;;;7.40;99.90;;;;;;12260421;28;20138;-79
2021/04/30 05:23:14;;;;;;;38.13;28.70;;;7.60;99.90;;;;;;12284886;28;20126;-78
2021/04/30 05:29:16;;;;;;;40.65;28.85;;;7.60;99.90;;;;;;12311910;28;20055;-79
2021/04/30 05:35:17;;;;;;;38.63;29.27;;;7.70;99.90;;;;;;12292931;28;20055;-78
2021/04/30 05:41:19;;;;;;;39.95;30.75;;;7.60;99.90;;;;;;12255366;28;20050;-78
2021/04/30 05:47:21;;;;;;;38.50;30.02;;;7.40;99.90;;;;;;12260437;28;20043;-78
2021/04/30 05:53:22;;;;;;;39.88;30.38;;;7.40;99.90;;;;;;12254560;28;20328;-79
2021/04/30 05:59:24;;;;;;;44.33;32.47;;;7.40;99.90;;;;;;12256516;28;20047;-78
2021/04/30 06:05:25;;;;;;;38.45;30.23;;;7.40;99.90;;;;;;12256145;28;20039;-79
2021/04/30 06:11:26;;;;;;;36.25;29.30;;;7.80;99.90;;;;;;12261959;28;20043;-79
2021/04/30 06:17:27;;;;;;;35.65;28.67;;;8.10;99.90;;;;;;12257707;28;20912;-79
2021/04/30 06:23:29;;;;;;;35.28;28.27;;;8.10;99.90;;;;;;12258837;28;20951;-78
2021/04/30 06:29:31;;;;;;;34.22;27.40;;;8.40;99.90;;;;;;12254993;28;20055;-78
2021/04/30 06:35:32;;;;;;;37.75;28.83;;;8.40;99.90;;;;;;12262044;28;20075;-78
2021/04/30 06:41:34;;;;;;;36.33;28.10;;;8.50;99.90;;;;;;12259876;28;20047;-79
2021/04/30 06:47:36;;;;;;;34.60;27.27;;;8.70;99.90;;;;;;12260210;28;20048;-78
2021/04/30 06:53:38;;;;;;;36.03;26.55;;;8.90;99.90;;;;;;12281549;28;20447;-78
2021/04/30 06:59:39;;;;;;;33.35;25.60;;;9.10;99.90;;;;;;12263895;28;20047;-78
2021/04/30 07:05:40;;;;;;;33.85;26.80;;;9.50;99.90;;;;;;12253028;28;20048;-79
2021/04/30 07:11:42;;;;;;;31.10;24.98;;;9.40;99.90;;;;;;12255722;28;20052;-78
2021/04/30 07:17:44;;;;;;;34.70;25.95;;;9.40;99.90;;;;;;12257818;28;20553;-78
2021/04/30 07:23:45;;;;;;;32.00;26.00;;;9.70;99.90;;;;;;12251083;28;20134;-78
2021/04/30 07:29:46;;;;;;;33.28;26.10;;;9.90;99.90;;;;;;12250754;28;20052;-78
2021/04/30 07:35:48;;;;;;;31.13;25.65;;;10.00;99.90;;;;;;12251562;28;20530;-77
2021/04/30 07:41:49;;;;;;;31.80;24.48;;;10.40;99.90;;;;;;12252533;28;20087;-79
2021/04/30 07:47:50;;;;;;;34.35;22.33;;;10.80;99.90;;;;;;12256856;28;20104;-79
2021/04/30 07:53:52;;;;;;;27.30;21.63;;;10.70;99.90;;;;;;12250061;28;20058;-79
2021/04/30 07:59:54;;;;;;;24.42;19.65;;;10.50;99.90;;;;;;12263024;28;20142;-78
2021/04/30 08:05:55;;;;;;;28.77;21.85;;;10.70;99.90;;;;;;12256830;28;20097;-79
2021/04/30 08:11:56;;;;;;;23.45;20.05;;;10.90;99.90;;;;;;12263247;28;20838;-79
2021/04/30 08:17:58;;;;;;;25.15;19.33;;;11.40;99.90;;;;;;12271642;28;20089;-79
2021/04/30 08:23:59;;;;;;;21.63;18.27;;;11.60;99.90;;;;;;12257074;28;20143;-79
2021/04/30 08:30:05;;;;;;;23.80;18.45;;;11.60;99.90;;;;;;12266086;28;20096;-79
2021/04/30 08:36:06;;;;;;;22.27;18.95;;;11.40;99.90;;;;;;12266829;28;20131;-79
2021/04/30 08:42:11;;;;;;;25.85;21.27;;;10.90;99.90;;;;;;12268722;28;20055;-79
2021/04/30 08:48:14;;;;;;;28.70;20.92;;;10.80;99.90;;;;;;12274346;28;20143;-79
2021/04/30 08:54:19;;;;;;;26.80;20.35;;;10.60;99.90;;;;;;12268001;28;20717;-79
2021/04/30 09:00:20;;;;;;;27.95;20.92;;;10.40;99.90;;;;;;12264083;28;20189;-79
2021/04/30 09:06:33;;;;;;;26.38;19.50;;;10.70;99.90;;;;;;12262741;28;20048;-79
2021/04/30 09:12:41;;;;;;;25.83;19.88;;;11.00;99.90;;;;;;12282679;28;20488;-79
2021/04/30 09:18:49;;;;;;;24.02;18.42;;;11.30;99.90;;;;;;12268067;28;20074;-79
2021/04/30 09:24:54;;;;;;;24.45;17.65;;;11.70;99.90;;;;;;12266924;28;20130;-79
2021/04/30 09:30:55;;;;;;;20.05;17.52;;;12.40;99.90;;;;;;12266252;28;20047;-79
2021/04/30 09:37:04;;;;;;;22.48;16.70;;;12.60;99.90;;;;;;12264408;28;20060;-79
2021/04/30 09:43:08;;;;;;;20.05;17.35;;;12.30;99.90;;;;;;12270547;28;20048;-79
2021/04/30 09:49:14;;;;;;;21.63;17.75;;;12.00;99.90;;;;;;12266922;28;20048;-79
2021/04/30 09:55:16;;;;;;;18.95;15.43;;;12.10;99.90;;;;;;12263720;28;20571;-79
2021/04/30 10:01:23;;;;;;;18.63;16.17;;;12.30;99.90;;;;;;12261117;28;20051;-79
2021/04/30 10:07:26;;;;;;;18.77;15.50;;;12.10;99.90;;;;;;12274353;28;20051;-79
2021/04/30 10:13:28;;;;;;;18.63;15.80;;;12.00;99.90;;;;;;12263967;28;20043;-79
2021/04/30 10:19:29;;;;;;;24.75;19.73;;;12.00;99.90;;;;;;12262373;28;20059;-79
2021/04/30 10:25:32;;;;;;;27.63;19.92;;;11.60;99.90;;;;;;12268334;28;20091;-79
2021/04/30 10:31:38;;;;;;;21.92;18.83;;;11.10;99.90;;;;;;12265968;28;20082;-79
2021/04/30 10:37:42;;;;;;;24.92;19.60;;;10.60;99.90;;;;;;12262726;28;20089;-79
2021/04/30 10:43:48;;;;;;;24.93;18.97;;;10.80;99.90;;;;;;12263806;28;20055;-79
2021/04/30 10:50:11;;;;;;;25.45;19.30;;;10.50;99.90;;;;;;12267999;28;20101;-79
2021/04/30 10:56:32;;;;;;;28.40;18.55;;;11.10;99.90;;;;;;12220678;28;20097;-79
2021/04/30 11:02:34;;;;;;;24.52;20.05;;;11.30;99.90;;;;;;12255508;28;20134;-79
2021/04/30 11:08:54;;;;;;;26.73;18.90;;;10.80;99.90;;;;;;12260861;28;20069;-79
2021/04/30 11:15:08;;;;;;;24.80;19.23;;;10.80;99.90;;;;;;12261914;28;20651;-79
2021/04/30 11:21:10;;;;;;;23.50;17.60;;;10.80;99.90;;;;;;12268294;28;20051;-79
2021/04/30 11:27:12;;;;;;;20.88;18.00;;;10.80;99.90;;;;;;12262313;28;20446;-79
2021/04/30 11:33:14;;;;;;;26.73;20.90;;;10.60;99.90;;;;;;12259005;28;20126;-79
2021/04/30 11:39:23;;;;;;;28.00;20.48;;;10.70;99.90;;;;;;12260133;28;20463;-79
2021/04/30 11:45:24;;;;;;;28.42;21.23;;;10.90;99.90;;;;;;12269344;28;20660;-79
2021/04/30 11:51:26;;;;;;;26.17;21.02;;;11.20;99.90;;;;;;12267845;28;20070;-79
2021/04/30 11:57:28;;;;;;;26.90;21.58;;;11.30;99.90;;;;;;12263861;28;20056;-79
2021/04/30 12:03:44;;;;;;;27.15;21.15;;;11.30;99.90;;;;;;12256908;28;20055;-79
2021/04/30 12:09:47;;;;;;;29.05;21.33;;;11.50;99.90;;;;;;12274018;28;20466;-79
2021/04/30 12:15:49;;;;;;;27.23;20.65;;;11.90;99.90;;;;;;12261282;28;20073;-79
2021/04/30 12:21:50;;;;;;;25.42;19.77;;;12.20;99.90;;;;;;12264104;28;20799;-79
2021/04/30 12:27:52;;;;;;;26.20;19.75;;;12.10;99.90;;;;;;12254075;28;20277;-79
2021/04/30 12:33:56;;;;;;;27.90;20.52;;;11.70;99.90;;;;;;12259003;28;20142;-79
2021/04/30 12:40:02;;;;;;;23.57;20.97;;;11.70;99.90;;;;;;12304795;28;20043;-79
2021/04/30 12:46:31;;;;;;;27.38;21.38;;;11.50;99.90;;;;;;12313595;28;20105;-79
2021/04/30 12:52:33;;;;;;;25.60;21.55;;;11.50;99.90;;;;;;12258571;28;20100;-79
2021/04/30 12:58:39;;;;;;;26.02;21.60;;;11.60;99.90;;;;;;12253142;28;20047;-78
2021/04/30 13:04:45;;;;;;;27.17;21.63;;;11.20;99.90;;;;;;12245025;28;20532;-79
2021/04/30 13:11:09;;;;;;;27.15;21.58;;;10.90;99.90;;;;;;12250298;28;20130;-79
2021/04/30 13:17:21;;;;;;;26.37;21.73;;;10.80;99.90;;;;;;12269611;28;20097;-79
2021/04/30 13:23:32;;;;;;;31.67;21.67;;;10.60;99.90;;;;;;12260505;28;20047;-79
2021/04/30 13:29:37;;;;;;;30.02;22.08;;;10.60;99.90;;;;;;12267697;28;20097;-79
2021/04/30 13:35:38;;;;;;;24.67;21.67;;;10.50;99.90;;;;;;12257723;28;20051;-79
2021/04/30 13:41:39;;;;;;;26.92;20.83;;;10.60;99.90;;;;;;12268222;28;20085;-79
2021/04/30 13:47:48;;;;;;;30.15;21.90;;;10.50;99.90;;;;;;12262737;28;20048;-79
2021/04/30 13:53:50;;;;;;;27.55;20.45;;;10.40;99.90;;;;;;12260852;28;20063;-79
2021/04/30 13:59:52;;;;;;;27.63;22.95;;;10.40;99.90;;;;;;12255960;28;20152;-79
2021/04/30 14:05:54;;;;;;;27.85;21.90;;;10.30;99.90;;;;;;12265600;28;20100;-79
2021/04/30 14:11:56;;;;;;;27.48;21.75;;;10.30;99.90;;;;;;12254837;28;21225;-79
2021/04/30 14:17:58;;;;;;;25.65;20.83;;;10.30;99.90;;;;;;12260499;28;20148;-79
2021/04/30 14:24:02;;;;;;;27.73;21.17;;;10.30;99.90;;;;;;12271093;28;20044;-79
2021/04/30 14:30:04;;;;;;;26.10;21.03;;;10.50;99.90;;;;;;12273781;28;20055;-79
2021/04/30 14:36:06;;;;;;;27.67;21.08;;;10.60;99.90;;;;;;12269218;28;20445;-79
2021/04/30 14:42:09;;;;;;;26.05;21.45;;;10.60;99.90;;;;;;12264278;28;20859;-79
2021/04/30 14:48:10;;;;;;;32.83;23.48;;;10.60;99.90;;;;;;12259859;28;20096;-79
2021/04/30 14:54:13;;;;;;;31.45;22.95;;;10.70;99.90;;;;;;12271144;28;20062;-79
2021/04/30 15:00:16;;;;;;;27.58;22.83;;;10.60;99.90;;;;;;12266356;28;20096;-79
2021/04/30 15:06:17;;;;;;;27.85;22.52;;;10.80;99.90;;;;;;12263167;28;20162;-79
2021/04/30 15:12:19;;;;;;;32.40;23.45;;;11.00;99.90;;;;;;12262275;28;20046;-79
2021/04/30 15:18:20;;;;;;;32.83;24.33;;;11.00;99.90;;;;;;12272586;28;20103;-79
2021/04/30 15:24:22;;;;;;;34.53;24.58;;;11.20;99.90;;;;;;12260225;28;20039;-79
2021/04/30 15:30:23;;;;;;;35.42;25.98;;;11.20;99.90;;;;;;12264670;28;20048;-79
2021/04/30 15:36:25;;;;;;;31.50;25.30;;;11.10;99.90;;;;;;12254523;28;20051;-79
2021/04/30 15:42:26;;;;;;;30.35;23.75;;;11.30;99.90;;;;;;12266192;28;20047;-79
2021/04/30 15:48:28;;;;;;;31.98;24.15;;;11.50;99.90;;;;;;12258170;28;20244;-79
2021/04/30 15:54:29;;;;;;;30.55;23.35;;;11.70;99.90;;;;;;12252595;28;20151;-79
2021/04/30 16:00:30;;;;;;;31.95;24.98;;;11.80;99.90;;;;;;12246862;28;20830;-79
2021/04/30 16:06:33;;;;;;;33.72;25.73;;;11.60;99.90;;;;;;12252159;28;20103;-79
2021/04/30 16:12:35;;;;;;;31.75;24.73;;;11.50;99.90;;;;;;12258389;28;20044;-79
2021/04/30 16:18:36;;;;;;;37.85;24.20;;;11.80;99.90;;;;;;12260966;28;20142;-79
2021/04/30 16:24:38;;;;;;;31.30;22.52;;;11.80;99.90;;;;;;12256888;28;20112;-79
2021/04/30 16:30:39;;;;;;;29.58;24.75;;;11.80;99.90;;;;;;12259482;28;20040;-79
2021/04/30 16:36:41;;;;;;;29.17;22.92;;;11.60;99.90;;;;;;12255228;28;20123;-79
2021/04/30 16:42:42;;;;;;;32.70;23.98;;;11.70;99.90;;;;;;12261349;28;20072;-79
2021/04/30 16:48:49;;;;;;;32.55;24.58;;;11.60;99.90;;;;;;12266239;28;20135;-79
2021/04/30 16:54:50;;;;;;;31.98;24.33;;;11.20;99.90;;;;;;12270222;28;20525;-79
2021/04/30 17:00:52;;;;;;;34.45;23.92;;;11.10;99.90;;;;;;12274157;28;20100;-79
2021/04/30 17:06:54;;;;;;;28.98;22.88;;;11.40;99.90;;;;;;12264217;28;20047;-80
2021/04/30 17:12:55;;;;;;;34.85;24.30;;;12.20;99.90;;;;;;12271489;28;20472;-79
2021/04/30 17:18:56;;;;;;;32.65;23.58;;;11.60;99.90;;;;;;12265902;28;20052;-79
2021/04/30 17:24:58;;;;;;;33.70;23.80;;;11.30;99.90;;;;;;12245383;28;20044;-79
2021/04/30 17:30:59;;;;;;;27.90;23.52;;;11.10;99.90;;;;;;12236943;28;20539;-79
2021/04/30 17:37:04;;;;;;;33.20;25.13;;;10.90;99.90;;;;;;12244143;28;20420;-79
2021/04/30 17:43:05;;;;;;;34.70;25.35;;;10.70;99.90;;;;;;12254875;28;20042;-79
2021/04/30 17:49:06;;;;;;;32.10;25.45;;;10.40;99.90;;;;;;12275224;28;20842;-79
2021/04/30 17:55:10;;;;;;;33.25;25.05;;;10.20;99.90;;;;;;12279118;28;20465;-79
2021/04/30 18:01:11;;;;;;;33.50;25.97;;;10.00;99.90;;;;;;12268826;28;20142;-79
2021/04/30 18:07:14;;;;;;;36.78;26.35;;;9.80;99.90;;;;;;12270730;28;20047;-79
2021/04/30 18:13:15;;;;;;;37.25;26.90;;;9.70;99.90;;;;;;12264710;28;20072;-79
2021/04/30 18:19:16;;;;;;;34.92;24.95;;;9.50;99.90;;;;;;12270835;28;20077;-79
2021/04/30 18:25:18;;;;;;;33.85;24.95;;;9.50;99.90;;;;;;12260092;28;20130;-79
2021/04/30 18:31:19;;;;;;;34.50;25.23;;;9.30;99.90;;;;;;12270241;28;20047;-79
2021/04/30 18:37:20;;;;;;;32.75;25.13;;;9.20;99.90;;;;;;12271827;28;20138;-79
2021/04/30 18:43:22;;;;;;;38.65;26.00;;;9.10;99.90;;;;;;12268258;28;20099;-79
2021/04/30 18:49:23;;;;;;;36.28;27.50;;;9.10;99.90;;;;;;12304559;28;20039;-79
2021/04/30 18:55:25;;;;;;;40.00;28.80;;;9.10;99.90;;;;;;12317901;28;20043;-79
2021/04/30 19:01:26;;;;;;;41.85;30.45;;;9.00;99.90;;;;;;12279572;28;20055;-78
2021/04/30 19:07:27;;;;;;;35.28;26.02;;;8.90;99.90;;;;;;12271034;28;20166;-79
2021/04/30 19:13:29;;;;;;;32.45;24.35;;;9.00;99.90;;;;;;12281929;28;20055;-79
2021/04/30 19:19:31;;;;;;;31.45;24.30;;;9.30;99.90;;;;;;12270305;28;20380;-79
2021/04/30 19:25:37;;;;;;;37.70;24.48;;;9.30;99.90;;;;;;12270491;28;20166;-79
2021/04/30 19:31:38;;;;;;;34.58;23.90;;;9.30;99.90;;;;;;12260107;28;20134;-79
2021/04/30 19:37:40;;;;;;;33.83;24.42;;;9.10;99.90;;;;;;12258430;28;20111;-78
2021/04/30 19:43:41;;;;;;;37.97;26.48;;;8.90;99.90;;;;;;12257961;28;20082;-79
2021/04/30 19:49:42;;;;;;;34.83;26.70;;;8.90;99.90;;;;;;12256865;28;20189;-78
2021/04/30 19:55:44;;;;;;;38.83;26.48;;;8.80;99.90;;;;;;12263964;28;20055;-78
2021/04/30 20:01:46;;;;;;;39.65;26.48;;;8.80;99.90;;;;;;12268117;28;20251;-78
2021/04/30 20:07:48;;;;;;;36.17;26.10;;;8.70;99.90;;;;;;12259883;28;20039;-78
2021/04/30 20:13:49;;;;;;;40.20;28.13;;;8.60;99.90;;;;;;12261272;28;20557;-79
2021/04/30 20:19:51;;;;;;;39.00;27.00;;;8.50;99.90;;;;;;12258962;28;20253;-78
2021/04/30 20:25:53;;;;;;;44.05;29.75;;;8.40;99.90;;;;;;12260674;28;20048;-78
2021/04/30 20:31:54;;;;;;;39.88;29.33;;;8.30;99.90;;;;;;12267434;28;20043;-78
2021/04/30 20:37:55;;;;;;;42.50;28.38;;;8.20;99.90;;;;;;12277873;28;20056;-78
2021/04/30 20:43:56;;;;;;;42.47;29.65;;;8.30;99.90;;;;;;12266842;28;20047;-78
2021/04/30 20:49:58;;;;;;;41.42;30.10;;;8.20;99.90;;;;;;12274284;28;20139;-79
2021/04/30 20:55:59;;;;;;;42.75;28.25;;;8.30;99.90;;;;;;12258399;28;20388;-78
2021/04/30 21:02:01;;;;;;;41.85;30.65;;;8.30;99.90;;;;;;12267658;28;20130;-79
2021/04/30 21:08:02;;;;;;;45.35;30.25;;;8.10;99.90;;;;;;12260565;28;20068;-78
2021/04/30 21:20:29;;;;;;;47.15;31.88;;;7.80;99.90;;;;;;12268215;28;20178;-78
2021/04/30 21:26:30;;;;;;;45.95;32.67;;;7.70;99.90;;;;;;12270167;28;20047;-79
2021/04/30 21:32:31;;;;;;;53.40;33.42;;;7.70;99.90;;;;;;12265720;28;20736;-78
2021/04/30 21:38:33;;;;;;;50.53;33.53;;;7.60;99.90;;;;;;12270876;28;20079;-78
2021/04/30 21:44:34;;;;;;;49.92;34.42;;;7.80;99.90;;;;;;12260907;28;20409;-79
2021/04/30 21:50:35;;;;;;;48.90;33.00;;;7.90;99.90;;;;;;12266001;28;20426;-78
2021/04/30 21:56:37;;;;;;;51.80;32.63;;;7.80;99.90;;;;;;12264452;28;20081;-79
2021/04/30 22:02:38;;;;;;;44.00;30.65;;;7.80;99.90;;;;;;12262436;28;20396;-79
2021/04/30 22:08:40;;;;;;;50.42;32.15;;;7.80;99.90;;;;;;12267692;28;20548;-79
2021/04/30 22:14:42;;;;;;;46.30;32.28;;;7.80;99.90;;;;;;12269063;28;20989;-78
2021/04/30 22:20:43;;;;;;;47.92;32.67;;;7.80;99.90;;;;;;12266125;28;21409;-78
2021/04/30 22:26:45;;;;;;;53.03;34.80;;;7.60;99.90;;;;;;12258601;28;20051;-78
2021/04/30 22:32:51;;;;;;;51.38;33.20;;;7.40;99.90;;;;;;12265907;28;20051;-79
2021/04/30 22:38:52;;;;;;;48.97;33.03;;;7.50;99.90;;;;;;12256353;28;20480;-79
2021/04/30 22:44:53;;;;;;;46.70;32.17;;;7.60;99.90;;;;;;12270469;28;20251;-78
2021/04/30 22:50:55;;;;;;;52.80;34.08;;;7.50;99.90;;;;;;12258674;28;20054;-79
2021/04/30 22:56:56;;;;;;;54.03;32.97;;;7.40;99.90;;;;;;12256056;28;20120;-79
2021/04/30 23:02:57;;;;;;;51.38;34.08;;;7.40;99.90;;;;;;12254654;28;20055;-78
2021/04/30 23:08:59;;;;;;;54.63;35.80;;;7.40;99.90;;;;;;12264488;28;20047;-79
2021/04/30 23:15:00;;;;;;;53.90;33.75;;;7.50;99.90;;;;;;12266033;28;20432;-78
2021/04/30 23:21:01;;;;;;;57.60;35.25;;;7.40;99.90;;;;;;12256231;28;20055;-79
2021/04/30 23:27:03;;;;;;;51.88;33.35;;;7.40;99.90;;;;;;12271488;28;20586;-79
2021/04/30 23:33:05;;;;;;;53.20;34.20;;;7.30;99.90;;;;;;12285690;28;20480;-78
2021/04/30 23:39:08;;;;;;;55.67;34.08;;;7.20;99.90;;;;;;12261131;28;20160;-78
2021/04/30 23:45:10;;;;;;;54.72;33.58;;;7.00;99.90;;;;;;12252589;28;20039;-79
2021/04/30 23:51:12;;;;;;;57.20;35.25;;;6.80;99.90;;;;;;12262071;28;20555;-78
2021/04/30 23:57:13;;;;;;;48.63;32.20;;;6.70;99.90;;;;;;12264288;28;20734;-78
